createdAt,value
2019-04-16T00:01:50.445Z,100366.66
2019-04-16T00:04:24.962Z,100361.19
2019-04-16T00:07:14.574Z,100365.69
2019-04-16T00:09:50.335Z,100356.51
2019-04-16T00:12:35.420Z,100365.64
2019-04-16T00:15:07.515Z,100362.61
2019-04-16T00:17:38.881Z,100366.03
2019-04-16T00:20:11.619Z,100367.47
2019-04-16T00:22:51.716Z,100362.59
2019-04-16T00:25:23.068Z,100363.27
2019-04-16T00:27:54.566Z,100360.91
2019-04-16T00:30:25.996Z,100367.61
2019-04-16T00:32:57.751Z,100360.99
2019-04-16T00:35:29.166Z,100362.27
2019-04-16T00:38:00.609Z,100359.42
2019-04-16T00:40:32.046Z,100364.52
2019-04-16T00:43:03.758Z,100364.38
2019-04-16T00:45:35.197Z,100367.84
2019-04-16T00:48:06.618Z,100358.00
2019-04-16T00:50:38.019Z,100354.78
2019-04-16T00:53:09.399Z,100366.55
2019-04-16T00:55:42.349Z,100370.14
2019-04-16T00:58:13.888Z,100373.05
2019-04-16T01:00:45.261Z,100373.05
2019-04-16T01:03:16.881Z,100368.41
2019-04-16T01:05:48.360Z,100376.77
2019-04-16T01:08:19.841Z,100373.23
2019-04-16T01:10:51.296Z,100373.23
2019-04-16T01:13:24.489Z,100383.55
2019-04-16T01:15:55.879Z,100385.09
2019-04-16T01:18:27.396Z,100385.09
2019-04-16T01:20:58.923Z,100394.14
2019-04-16T01:23:30.419Z,100399.77
2019-04-16T01:26:01.892Z,100397.05
2019-04-16T01:28:35.132Z,100390.19
2019-04-16T01:31:26.229Z,100391.09
2019-04-16T01:34:18.150Z,100391.41
2019-04-16T01:36:51.444Z,100392.77
2019-04-16T01:39:28.944Z,100395.69
2019-04-16T01:42:00.347Z,100399.40
2019-04-16T01:44:31.815Z,100399.40
2019-04-16T01:47:04.171Z,100389.55
2019-04-16T01:49:39.349Z,100401.32
2019-04-16T01:52:10.863Z,100401.32
2019-04-16T01:54:42.485Z,100410.69
2019-04-16T01:57:13.867Z,100403.91
2019-04-16T01:59:45.351Z,100411.37
2019-04-16T02:02:18.028Z,100413.59
2019-04-16T02:04:51.895Z,100413.59
2019-04-16T02:07:27.741Z,100416.86
2019-04-16T02:09:55.757Z,100419.91
2019-04-16T02:12:27.198Z,100425.69
2019-04-16T02:14:58.630Z,100425.69
2019-04-16T02:17:29.982Z,100426.72
2019-04-16T02:20:05.515Z,100426.14
2019-04-16T02:22:34.820Z,100425.00
2019-04-16T02:25:07.343Z,100429.45
2019-04-16T02:27:39.878Z,100423.27
2019-04-16T02:30:11.402Z,100428.41
2019-04-16T02:32:42.960Z,100433.00
2019-04-16T02:35:14.628Z,100433.69
2019-04-16T02:37:46.018Z,100434.05
2019-04-16T02:40:18.777Z,100434.05
2019-04-16T02:42:50.604Z,100436.95
2019-04-16T02:45:23.469Z,100441.05
2019-04-16T02:47:55.262Z,100439.19
2019-04-16T02:50:31.998Z,100442.95
2019-04-16T02:53:24.172Z,100436.78
2019-04-16T02:55:54.116Z,100454.00
2019-04-16T02:58:33.993Z,100454.00
2019-04-16T03:01:01.952Z,100452.28
2019-04-16T03:03:55.401Z,100455.05
2019-04-16T03:06:24.906Z,100455.05
2019-04-16T03:08:56.298Z,100464.09
2019-04-16T03:11:27.815Z,100463.59
2019-04-16T03:13:59.521Z,100468.39
2019-04-16T03:16:48.707Z,100469.08
2019-04-16T03:19:21.701Z,100473.52
2019-04-16T03:21:55.700Z,100471.52
2019-04-16T03:24:26.340Z,100473.05
2019-04-16T03:26:57.773Z,100474.38
2019-04-16T03:29:30.588Z,100486.12
2019-04-16T03:32:02.335Z,100484.31
2019-04-16T03:34:33.711Z,100494.00
2019-04-16T03:37:05.107Z,100497.41
2019-04-16T03:39:36.456Z,100499.77
2019-04-16T03:42:07.856Z,100510.66
2019-04-16T03:44:39.345Z,100510.66
2019-04-16T03:47:10.844Z,100506.71
2019-04-16T03:49:42.254Z,100519.63
2019-04-16T03:52:13.734Z,100514.86
2019-04-16T03:54:46.158Z,100525.80
2019-04-16T03:57:17.657Z,100525.80
2019-04-16T03:59:49.015Z,100525.14
2019-04-16T04:02:22.800Z,100528.07
2019-04-16T04:04:54.573Z,100541.18
2019-04-16T04:07:25.989Z,100537.44
2019-04-16T04:09:58.822Z,100546.45
2019-04-16T04:12:30.423Z,100548.12
2019-04-16T04:15:01.916Z,100553.92
2019-04-16T04:17:35.762Z,100552.17
2019-04-16T04:20:08.153Z,100547.97
2019-04-16T04:22:39.594Z,100554.07
2019-04-16T04:25:11.056Z,100562.10
2019-04-16T04:27:43.583Z,100561.27
2019-04-16T04:30:17.480Z,100563.84
2019-04-16T04:32:48.965Z,100562.63
2019-04-16T04:35:22.168Z,100567.03
2019-04-16T04:37:53.518Z,100567.03
2019-04-16T04:40:24.908Z,100566.55
2019-04-16T04:42:57.627Z,100565.52
2019-04-16T04:45:29.501Z,100560.06
2019-04-16T04:48:01.014Z,100570.11
2019-04-16T04:50:35.262Z,100566.17
2019-04-16T04:53:05.630Z,100570.94
2019-04-16T04:55:36.988Z,100578.11
2019-04-16T04:58:08.538Z,100572.95
2019-04-16T05:00:40.287Z,100564.48
2019-04-16T05:03:31.666Z,100564.48
2019-04-16T05:06:04.708Z,100567.17
2019-04-16T05:08:36.103Z,100572.48
2019-04-16T05:11:07.486Z,100572.78
2019-04-16T05:13:38.830Z,100577.73
2019-04-16T05:16:10.243Z,100577.73
2019-04-16T05:18:42.676Z,100574.47
2019-04-16T05:21:17.848Z,100578.38
2019-04-16T05:23:47.469Z,100583.45
2019-04-16T05:26:18.887Z,100579.69
2019-04-16T05:28:51.339Z,100580.37
2019-04-16T05:31:25.633Z,100580.37
2019-04-16T05:34:00.483Z,100582.27
2019-04-16T05:36:29.041Z,100578.50
2019-04-16T05:39:03.593Z,100587.16
2019-04-16T05:41:34.156Z,100587.69
2019-04-16T05:44:05.543Z,100595.38
2019-04-16T05:46:38.363Z,100589.91
2019-04-16T05:49:09.897Z,100590.89
2019-04-16T05:51:41.346Z,100599.61
2019-04-16T05:54:20.423Z,100599.61
2019-04-16T05:56:55.462Z,100599.04
2019-04-16T05:59:26.572Z,100594.14
2019-04-16T06:02:00.766Z,100593.94
2019-04-16T06:04:32.379Z,100597.31
2019-04-16T06:07:07.545Z,100600.83
2019-04-16T06:09:36.892Z,100598.99
2019-04-16T06:12:08.759Z,100599.17
2019-04-16T06:14:57.567Z,100599.68
2019-04-16T06:17:32.173Z,100598.62
2019-04-16T06:20:10.283Z,100604.18
2019-04-16T06:22:55.366Z,100602.86
2019-04-16T06:25:28.517Z,100602.86
2019-04-16T06:28:10.896Z,100600.67
2019-04-16T06:30:49.972Z,100594.50
2019-04-16T06:33:35.067Z,100605.91
2019-04-16T06:36:08.102Z,100611.51
2019-04-16T06:38:43.983Z,100616.34
2019-04-16T06:41:17.306Z,100618.46
2019-04-16T06:43:50.352Z,100618.52
2019-04-16T06:46:29.509Z,100619.78
2019-04-16T06:49:05.551Z,100620.79
2019-04-16T06:51:45.805Z,100618.06
2019-04-16T06:54:25.587Z,100623.98
2019-04-16T06:57:16.010Z,100624.06
2019-04-16T06:59:59.448Z,100630.95
2019-04-16T07:02:37.565Z,100630.16
2019-04-16T07:05:32.129Z,100610.79
2019-04-16T07:08:04.508Z,100623.56
2019-04-16T07:10:44.797Z,100627.28
2019-04-16T07:13:13.851Z,100630.02
2019-04-16T07:15:45.340Z,100629.80
2019-04-16T07:18:16.860Z,100629.80
2019-04-16T07:20:49.012Z,100629.36
2019-04-16T07:23:24.537Z,100633.09
2019-04-16T07:25:54.836Z,100629.51
2019-04-16T07:28:28.345Z,100629.98
2019-04-16T07:31:01.717Z,100629.98
2019-04-16T07:33:39.483Z,100638.90
2019-04-16T07:36:30.752Z,100635.52
2019-04-16T07:39:37.280Z,100634.63
2019-04-16T07:43:47.059Z,100639.77
2019-04-16T07:44:30.179Z,100634.30
2019-04-16T07:47:21.258Z,100635.97
2019-04-16T07:50:10.088Z,100634.94
2019-04-16T07:52:52.078Z,100634.94
2019-04-16T07:55:26.546Z,100643.00
2019-04-16T07:57:59.420Z,100642.23
2019-04-16T08:00:30.894Z,100642.23
2019-04-16T08:03:02.660Z,100636.56
2019-04-16T08:05:34.237Z,100644.68
2019-04-16T08:08:05.638Z,100640.91
2019-04-16T08:10:37.145Z,100643.23
2019-04-16T08:13:14.214Z,100633.03
2019-04-16T08:15:45.806Z,100627.60
2019-04-16T08:18:17.295Z,100627.60
2019-04-16T08:21:00.349Z,100632.02
2019-04-16T08:23:26.708Z,100646.19
2019-04-16T08:26:03.586Z,100629.92
2019-04-16T08:28:33.034Z,100632.91
2019-04-16T08:31:10.780Z,100632.91
2019-04-16T08:33:38.178Z,100629.78
2019-04-16T08:36:09.678Z,100629.25
2019-04-16T08:38:41.174Z,100625.69
2019-04-16T08:41:13.359Z,100624.80
2019-04-16T08:43:45.008Z,100626.70
2019-04-16T08:46:16.455Z,100619.59
2019-04-16T08:48:49.374Z,100626.92
2019-04-16T08:51:30.367Z,100620.16
2019-04-16T08:53:54.382Z,100622.45
2019-04-16T08:56:25.942Z,100617.48
2019-04-16T08:59:00.957Z,100617.48
2019-04-16T09:01:35.318Z,100615.25
2019-04-16T09:04:07.163Z,100612.54
2019-04-16T09:06:38.828Z,100629.67
2019-04-16T09:09:27.073Z,100639.98
2019-04-16T09:12:00.317Z,100648.84
2019-04-16T09:14:33.640Z,100648.84
2019-04-16T09:17:10.425Z,100647.88
2019-04-16T09:19:44.118Z,100651.22
2019-04-16T09:33:12.319Z,100655.64
2019-04-16T09:48:05.468Z,100668.80
2019-04-16T09:50:42.497Z,100668.31
2019-04-16T09:53:12.294Z,100676.52
2019-04-16T09:55:44.155Z,100674.94
2019-04-16T09:58:22.145Z,100680.91
2019-04-16T10:00:56.006Z,100682.14
2019-04-16T10:03:29.209Z,100688.83
2019-04-16T10:06:00.790Z,100692.94
2019-04-16T10:08:32.408Z,100692.13
2019-04-16T10:11:06.204Z,100692.13
2019-04-16T10:13:37.215Z,100704.24
2019-04-16T10:16:08.902Z,100703.95
2019-04-16T10:21:59.766Z,100699.00
2019-04-16T10:28:11.839Z,100693.75
2019-04-16T10:31:03.991Z,100705.32
2019-04-16T10:33:52.960Z,100704.31
2019-04-16T10:36:24.818Z,100698.45
2019-04-16T10:38:59.376Z,100706.28
2019-04-16T10:41:51.265Z,100689.70
2019-04-16T10:44:38.510Z,100710.83
2019-04-16T10:47:28.682Z,100707.73
2019-04-16T10:50:04.897Z,100703.58
2019-04-16T10:56:56.690Z,100701.41
2019-04-16T10:59:42.825Z,100712.22
2019-04-16T11:02:24.795Z,100705.22
2019-04-16T11:05:02.991Z,100721.01
2019-04-16T11:07:38.273Z,100719.58
2019-04-16T11:10:11.737Z,100725.84
2019-04-16T11:12:43.203Z,100713.06
2019-04-16T11:15:17.313Z,100720.12
2019-04-16T11:17:48.833Z,100710.05
2019-04-16T11:20:20.255Z,100706.97
2019-04-16T11:22:53.096Z,100710.38
2019-04-16T11:25:24.719Z,100703.92
2019-04-16T11:27:56.196Z,100713.61
2019-04-16T11:30:35.194Z,100715.43
2019-04-16T11:33:06.593Z,100711.95
2019-04-16T11:35:38.025Z,100711.78
2019-04-16T11:38:09.392Z,100718.55
2019-04-16T11:40:41.177Z,100720.87
2019-04-16T11:43:12.885Z,100717.75
2019-04-16T11:45:44.327Z,100719.14
2019-04-16T11:48:15.768Z,100721.42
2019-04-16T11:50:47.144Z,100727.88
2019-04-16T11:53:18.687Z,100725.39
2019-04-16T11:55:49.952Z,100723.67
2019-04-16T11:58:28.639Z,100731.07
2019-04-16T12:01:04.610Z,100731.69
2019-04-16T12:03:49.804Z,100736.88
2019-04-16T12:06:28.430Z,100733.97
2019-04-16T12:09:00.802Z,100735.93
2019-04-16T12:11:38.507Z,100729.59
2019-04-16T12:14:29.663Z,100735.28
2019-04-16T12:16:58.398Z,100741.43
2019-04-16T12:19:46.819Z,100745.06
2019-04-16T12:22:19.999Z,100733.10
2019-04-16T12:25:09.389Z,100733.10
2019-04-16T12:27:45.537Z,100737.92
2019-04-16T12:30:28.698Z,100741.19
2019-04-16T12:33:17.109Z,100734.72
2019-04-16T12:35:50.300Z,100732.67
2019-04-16T12:38:38.468Z,100735.37
2019-04-16T12:41:27.895Z,100724.09
2019-04-16T12:44:00.915Z,100720.67
2019-04-16T12:46:36.720Z,100729.82
2019-04-16T12:49:25.942Z,100730.32
2019-04-16T12:51:59.020Z,100732.19
2019-04-16T12:54:37.851Z,100733.01
2019-04-16T12:57:13.986Z,100740.11
2019-04-16T13:00:02.946Z,100740.80
2019-04-16T13:02:41.929Z,100733.78
2019-04-16T13:05:32.495Z,100735.01
2019-04-16T13:08:17.582Z,100738.02
2019-04-16T13:11:09.125Z,100741.20
2019-04-16T13:13:58.594Z,100744.75
2019-04-16T13:16:31.603Z,100741.27
2019-04-16T13:19:07.681Z,100745.92
2019-04-16T13:21:46.830Z,100746.05
2019-04-16T13:27:05.041Z,100754.44
2019-04-16T13:29:37.899Z,100751.27
2019-04-16T13:32:09.443Z,100750.34
2019-04-16T13:34:40.839Z,100756.99
2019-04-16T13:37:12.255Z,100754.45
2019-04-16T13:39:45.264Z,100748.60
2019-04-16T13:42:16.663Z,100761.28
2019-04-16T13:44:49.766Z,100756.96
2019-04-16T13:47:21.222Z,100755.42
2019-04-16T13:49:54.316Z,100756.83
2019-04-16T13:52:25.812Z,100755.11
2019-04-16T13:55:11.029Z,100759.02
2019-04-16T13:57:53.130Z,100753.91
2019-04-16T14:00:29.209Z,100755.97
2019-04-16T14:03:02.322Z,100757.38
2019-04-16T14:05:37.538Z,100756.34
2019-04-16T14:08:06.965Z,100759.75
2019-04-16T14:10:38.335Z,100764.80
2019-04-16T14:13:13.461Z,100765.31
2019-04-16T14:15:44.797Z,100773.33
2019-04-16T14:18:17.012Z,100766.39
2019-04-16T14:20:48.382Z,100769.48
2019-04-16T14:23:19.765Z,100770.67
2019-04-16T14:25:51.246Z,100771.47
2019-04-16T14:28:22.777Z,100763.60
2019-04-16T14:30:55.322Z,100768.86
2019-04-16T14:33:28.433Z,100768.19
2019-04-16T14:36:01.055Z,100769.88
2019-04-16T14:38:37.145Z,100769.26
2019-04-16T14:41:08.663Z,100771.98
2019-04-16T14:43:44.629Z,100771.91
2019-04-16T14:46:16.168Z,100767.95
2019-04-16T14:48:47.592Z,100764.85
2019-04-16T14:51:19.065Z,100765.87
2019-04-16T14:53:52.313Z,100772.61
2019-04-16T14:56:25.334Z,100775.16
2019-04-16T14:59:04.657Z,100771.23
2019-04-16T15:01:44.671Z,100778.25
2019-04-16T15:04:26.484Z,100775.61
2019-04-16T15:07:15.638Z,100773.91
2019-04-16T15:10:01.126Z,100774.78
2019-04-16T15:12:38.329Z,100772.72
2019-04-16T15:15:14.122Z,100772.06
2019-04-16T15:17:53.238Z,100776.76
2019-04-16T15:20:26.341Z,100777.33
2019-04-16T15:23:15.713Z,100773.91
2019-04-16T15:26:03.765Z,100776.64
2019-04-16T15:28:54.843Z,100782.80
2019-04-16T15:31:34.125Z,100775.81
2019-04-16T15:34:16.210Z,100779.97
2019-04-16T15:36:55.061Z,100780.47
2019-04-16T15:39:26.679Z,100776.70
2019-04-16T15:42:17.451Z,100778.38
2019-04-16T15:44:56.157Z,100781.42
2019-04-16T15:47:32.496Z,100780.06
2019-04-16T15:50:10.513Z,100779.92
2019-04-16T15:52:46.201Z,100787.95
2019-04-16T15:55:18.396Z,100785.90
2019-04-16T15:58:04.681Z,100790.50
2019-04-16T16:00:38.345Z,100789.30
2019-04-16T16:03:27.523Z,100795.42
2019-04-16T16:06:04.395Z,100798.83
2019-04-16T16:08:43.496Z,100801.69
2019-04-16T16:11:19.220Z,100803.92
2019-04-16T16:13:50.671Z,100804.17
2019-04-16T16:16:22.119Z,100806.03
2019-04-16T16:18:53.491Z,100800.06
2019-04-16T16:21:24.948Z,100807.72
2019-04-16T16:23:56.341Z,100811.83
2019-04-16T16:26:27.797Z,100818.30
2019-04-16T16:28:59.293Z,100820.02
2019-04-16T16:31:35.018Z,100827.72
2019-04-16T16:34:03.980Z,100820.72
2019-04-16T16:36:36.537Z,100832.47
2019-04-16T16:39:08.702Z,100833.16
2019-04-16T16:41:41.684Z,100829.46
2019-04-16T16:44:13.073Z,100829.46
2019-04-16T16:46:57.229Z,100841.77
2019-04-16T16:49:25.175Z,100844.65
2019-04-16T16:52:14.874Z,100854.39
2019-04-16T16:54:47.910Z,100860.18
2019-04-16T16:57:21.065Z,100857.00
2019-04-16T17:00:12.499Z,100858.58
2019-04-16T17:02:48.444Z,100860.92
2019-04-16T17:05:21.636Z,100858.72
2019-04-16T17:07:53.647Z,100857.72
2019-04-16T17:10:26.227Z,100861.95
2019-04-16T17:12:57.945Z,100860.91
2019-04-16T17:15:30.428Z,100861.77
2019-04-16T17:18:01.799Z,100866.89
2019-04-16T17:20:33.188Z,100863.47
2019-04-16T17:23:04.707Z,100867.06
2019-04-16T17:25:37.107Z,100872.72
2019-04-16T17:28:09.806Z,100877.00
2019-04-16T17:30:41.427Z,100876.28
2019-04-16T17:33:12.890Z,100880.73
2019-04-16T17:35:46.592Z,100879.19
2019-04-16T17:38:17.498Z,100878.84
2019-04-16T17:40:55.725Z,100882.11
2019-04-16T17:43:41.446Z,100881.75
2019-04-16T17:46:24.955Z,100884.30
2019-04-16T17:48:58.206Z,100894.56
2019-04-16T17:51:31.283Z,100886.86
2019-04-16T17:54:13.187Z,100896.06
2019-04-16T17:56:56.432Z,100896.10
2019-04-16T17:59:30.257Z,100900.89
2019-04-16T18:02:06.204Z,100903.12
2019-04-16T18:04:51.402Z,100907.91
2019-04-16T18:07:27.385Z,100905.64
2019-04-16T18:10:01.918Z,100902.91
2019-04-16T18:12:55.159Z,100902.22
2019-04-16T18:15:30.879Z,100906.86
2019-04-16T18:18:06.928Z,100903.16
2019-04-16T18:20:57.434Z,100904.27
2019-04-16T18:23:40.436Z,100908.55
2019-04-16T18:26:30.075Z,100908.21
2019-04-16T18:29:15.251Z,100902.59
2019-04-16T18:31:48.405Z,100904.14
2019-04-16T18:34:36.778Z,100905.36
2019-04-16T18:37:21.895Z,100905.90
2019-04-16T18:39:55.003Z,100900.24
2019-04-16T18:42:44.501Z,100899.41
2019-04-16T18:45:23.538Z,100899.41
2019-04-16T18:48:04.901Z,100897.20
2019-04-16T18:50:30.632Z,100905.22
2019-04-16T18:53:02.056Z,100900.97
2019-04-16T18:55:33.482Z,100892.94
2019-04-16T18:58:05.089Z,100892.94
2019-04-16T19:00:38.690Z,100897.91
2019-04-16T19:03:14.638Z,100893.46
2019-04-16T19:05:43.632Z,100896.72
2019-04-16T19:08:15.292Z,100898.09
2019-04-16T19:10:46.872Z,100896.37
2019-04-16T19:13:20.071Z,100896.37
2019-04-16T19:15:52.306Z,100896.54
2019-04-16T19:18:24.219Z,100882.73
2019-04-16T19:20:55.773Z,100884.08
2019-04-16T19:23:27.296Z,100895.17
2019-04-16T19:25:58.862Z,100887.16
2019-04-16T19:28:31.367Z,100888.36
2019-04-16T19:31:02.868Z,100888.36
2019-04-16T19:33:38.253Z,100892.44
2019-04-16T19:36:08.041Z,100898.08
2019-04-16T19:38:40.628Z,100882.05
2019-04-16T19:41:12.530Z,100885.80
2019-04-16T19:43:44.200Z,100889.22
2019-04-16T19:46:16.829Z,100891.59
2019-04-16T19:48:48.396Z,100895.86
2019-04-16T19:51:20.128Z,100892.45
2019-04-16T19:53:51.523Z,100892.45
2019-04-16T19:56:23.983Z,100884.63
2019-04-16T19:58:55.384Z,100888.70
2019-04-16T20:01:27.003Z,100887.17
2019-04-16T20:03:58.562Z,100892.62
2019-04-16T20:06:30.216Z,100898.42
2019-04-16T20:09:02.100Z,100898.42
2019-04-16T20:11:35.130Z,100887.33
2019-04-16T20:14:06.681Z,100892.98
2019-04-16T20:16:38.248Z,100894.34
2019-04-16T20:19:09.972Z,100889.72
2019-04-16T20:21:41.703Z,100889.72
2019-04-16T20:24:13.409Z,100895.17
2019-04-16T20:26:44.873Z,100906.78
2019-04-16T20:29:16.321Z,100903.03
2019-04-16T20:31:47.911Z,100898.27
2019-04-16T20:34:19.438Z,100888.52
2019-04-16T20:36:52.241Z,100888.52
2019-04-16T20:39:24.157Z,100894.67
2019-04-16T20:41:59.056Z,100892.11
2019-04-16T20:44:28.955Z,100894.67
2019-04-16T20:47:03.305Z,100892.46
2019-04-16T20:49:33.730Z,100893.66
2019-04-16T20:52:05.238Z,100888.02
2019-04-16T20:54:37.637Z,100885.64
2019-04-16T20:57:09.055Z,100888.19
2019-04-16T20:59:40.463Z,100892.77
2019-04-16T21:02:11.968Z,100888.33
2019-04-16T21:04:43.391Z,100892.97
2019-04-16T21:07:15.527Z,100887.66
2019-04-16T21:09:47.063Z,100891.06
2019-04-16T21:12:18.503Z,100886.81
2019-04-16T21:14:50.899Z,100870.61
2019-04-16T21:17:22.947Z,100870.61
2019-04-16T21:19:54.398Z,100878.63
2019-04-16T21:22:28.110Z,100879.14
2019-04-16T21:24:58.924Z,100877.97
2019-04-16T21:27:31.952Z,100882.89
2019-04-16T21:30:11.234Z,100874.37
2019-04-16T21:32:54.902Z,100878.28
2019-04-16T21:35:36.878Z,100878.28
2019-04-16T21:38:13.019Z,100885.13
2019-04-16T21:40:44.391Z,100881.20
2019-04-16T21:43:15.738Z,100868.91
2019-04-16T21:45:48.326Z,100880.16
2019-04-16T21:48:23.909Z,100874.89
2019-04-16T21:50:55.380Z,100880.67
2019-04-16T21:53:27.836Z,100876.61
2019-04-16T21:56:00.045Z,100876.61
2019-04-16T21:58:31.502Z,100879.83
2019-04-16T22:01:05.234Z,100881.71
2019-04-16T22:03:41.890Z,100881.02
2019-04-16T22:06:10.056Z,100885.28
2019-04-16T22:08:41.774Z,100876.75
2019-04-16T22:11:13.145Z,100881.52
2019-04-16T22:13:44.653Z,100880.34
2019-04-16T22:16:16.058Z,100878.11
2019-04-16T22:18:47.428Z,100880.34
2019-04-16T22:21:19.891Z,100881.02
2019-04-16T22:23:51.453Z,100879.98
2019-04-16T22:26:22.907Z,100881.88
2019-04-16T22:28:54.276Z,100889.18
2019-04-16T22:31:25.741Z,100880.14
2019-04-16T22:33:57.104Z,100876.38
2019-04-16T22:36:28.561Z,100872.43
2019-04-16T22:39:16.561Z,100867.52
2019-04-16T22:41:52.243Z,100865.12
2019-04-16T22:44:25.370Z,100863.58
2019-04-16T22:46:58.456Z,100858.66
2019-04-16T22:49:29.826Z,100854.56
2019-04-16T22:52:01.460Z,100854.56
2019-04-16T22:54:32.833Z,100856.77
2019-04-16T22:57:05.879Z,100852.84
2019-04-16T22:59:39.389Z,100854.54
2019-04-16T23:02:13.797Z,100847.39
2019-04-16T23:04:45.192Z,100854.89
2019-04-16T23:07:16.568Z,100858.83
2019-04-16T23:09:48.565Z,100855.06
2019-04-16T23:12:20.831Z,100851.81
2019-04-16T23:14:52.274Z,100854.55
2019-04-16T23:17:25.375Z,100842.95
2019-04-16T23:19:56.927Z,100855.58
2019-04-16T23:22:28.567Z,100851.84
2019-04-16T23:25:01.291Z,100859.53
2019-04-16T23:27:37.223Z,100863.11
2019-04-16T23:30:07.186Z,100855.62
2019-04-16T23:32:38.703Z,100856.47
2019-04-16T23:35:11.650Z,100857.15
2019-04-16T23:37:43.241Z,100854.08
2019-04-16T23:40:15.721Z,100858.66
2019-04-16T23:42:50.396Z,100852.19
2019-04-16T23:45:32.389Z,100852.19
2019-04-16T23:48:17.715Z,100850.50
2019-04-16T23:50:51.789Z,100841.98
2019-04-16T23:53:40.962Z,100841.98
2019-04-16T23:56:20.611Z,100837.02
2019-04-16T23:59:01.469Z,100837.02
